sensor_id;sensor_type;location;lat;lon;timestamp;P1;durP1;ratioP1;P2;durP2;ratioP2
79691;SDS011;69158;55.592;37.610;2023-04-19T00:02:25;17.35;;;8.57;;
79691;SDS011;69158;55.592;37.610;2023-04-19T00:05:13;17.00;;;8.05;;
79691;SDS011;69158;55.592;37.610;2023-04-19T00:07:59;15.48;;;7.57;;
79691;SDS011;69158;55.592;37.610;2023-04-19T00:10:47;17.02;;;7.80;;
79691;SDS011;69158;55.592;37.610;2023-04-19T00:13:33;18.45;;;7.13;;
79691;SDS011;69158;55.592;37.610;2023-04-19T00:16:19;12.98;;;6.85;;
79691;SDS011;69158;55.592;37.610;2023-04-19T00:19:05;17.20;;;7.43;;
79691;SDS011;69158;55.592;37.610;2023-04-19T00:21:51;16.30;;;7.70;;
79691;SDS011;69158;55.592;37.610;2023-04-19T00:24:37;16.67;;;7.32;;
79691;SDS011;69158;55.592;37.610;2023-04-19T00:27:24;15.13;;;7.55;;
79691;SDS011;69158;55.592;37.610;2023-04-19T00:30:10;16.58;;;7.95;;
79691;SDS011;69158;55.592;37.610;2023-04-19T00:32:56;20.05;;;8.50;;
79691;SDS011;69158;55.592;37.610;2023-04-19T00:35:42;18.23;;;8.25;;
79691;SDS011;69158;55.592;37.610;2023-04-19T00:38:31;14.32;;;7.57;;
79691;SDS011;69158;55.592;37.610;2023-04-19T00:41:17;18.42;;;8.68;;
79691;SDS011;69158;55.592;37.610;2023-04-19T00:44:03;16.67;;;7.75;;
79691;SDS011;69158;55.592;37.610;2023-04-19T00:46:49;13.43;;;7.57;;
79691;SDS011;69158;55.592;37.610;2023-04-19T00:49:36;13.30;;;7.28;;
79691;SDS011;69158;55.592;37.610;2023-04-19T00:52:22;14.82;;;8.13;;
79691;SDS011;69158;55.592;37.610;2023-04-19T00:55:08;16.83;;;7.82;;
79691;SDS011;69158;55.592;37.610;2023-04-19T00:57:54;16.55;;;7.60;;
79691;SDS011;69158;55.592;37.610;2023-04-19T01:00:42;18.35;;;9.45;;
79691;SDS011;69158;55.592;37.610;2023-04-19T01:03:28;18.40;;;9.65;;
79691;SDS011;69158;55.592;37.610;2023-04-19T01:06:14;22.83;;;7.70;;
79691;SDS011;69158;55.592;37.610;2023-04-19T01:09:00;17.58;;;7.88;;
79691;SDS011;69158;55.592;37.610;2023-04-19T01:11:46;19.50;;;7.88;;
79691;SDS011;69158;55.592;37.610;2023-04-19T01:14:32;18.27;;;8.48;;
79691;SDS011;69158;55.592;37.610;2023-04-19T01:17:18;18.48;;;8.20;;
79691;SDS011;69158;55.592;37.610;2023-04-19T01:20:05;15.98;;;8.90;;
79691;SDS011;69158;55.592;37.610;2023-04-19T01:22:52;19.88;;;7.50;;
79691;SDS011;69158;55.592;37.610;2023-04-19T01:25:38;21.88;;;8.63;;
79691;SDS011;69158;55.592;37.610;2023-04-19T01:28:26;15.20;;;7.93;;
79691;SDS011;69158;55.592;37.610;2023-04-19T01:31:13;22.80;;;8.77;;
79691;SDS011;69158;55.592;37.610;2023-04-19T01:33:59;22.60;;;9.32;;
79691;SDS011;69158;55.592;37.610;2023-04-19T01:36:45;19.58;;;8.90;;
79691;SDS011;69158;55.592;37.610;2023-04-19T01:39:31;22.15;;;9.40;;
79691;SDS011;69158;55.592;37.610;2023-04-19T01:42:17;21.73;;;9.07;;
79691;SDS011;69158;55.592;37.610;2023-04-19T01:45:03;21.05;;;8.93;;
79691;SDS011;69158;55.592;37.610;2023-04-19T01:47:50;18.02;;;8.80;;
79691;SDS011;69158;55.592;37.610;2023-04-19T01:50:36;18.33;;;8.98;;
79691;SDS011;69158;55.592;37.610;2023-04-19T01:53:22;22.13;;;9.10;;
79691;SDS011;69158;55.592;37.610;2023-04-19T01:56:08;26.20;;;9.13;;
79691;SDS011;69158;55.592;37.610;2023-04-19T01:58:53;20.55;;;9.10;;
79691;SDS011;69158;55.592;37.610;2023-04-19T02:01:39;21.33;;;9.63;;
79691;SDS011;69158;55.592;37.610;2023-04-19T02:04:25;20.38;;;9.52;;
79691;SDS011;69158;55.592;37.610;2023-04-19T02:07:11;19.27;;;9.52;;
79691;SDS011;69158;55.592;37.610;2023-04-19T02:09:57;18.42;;;9.73;;
79691;SDS011;69158;55.592;37.610;2023-04-19T02:12:46;17.77;;;9.20;;
79691;SDS011;69158;55.592;37.610;2023-04-19T02:18:43;22.55;;;10.15;;
79691;SDS011;69158;55.592;37.610;2023-04-19T02:21:31;22.38;;;10.20;;
79691;SDS011;69158;55.592;37.610;2023-04-19T02:24:17;22.60;;;9.98;;
79691;SDS011;69158;55.592;37.610;2023-04-19T02:27:03;16.83;;;9.50;;
79691;SDS011;69158;55.592;37.610;2023-04-19T02:29:49;17.05;;;9.77;;
79691;SDS011;69158;55.592;37.610;2023-04-19T02:32:35;19.25;;;9.80;;
79691;SDS011;69158;55.592;37.610;2023-04-19T02:35:21;21.40;;;9.43;;
79691;SDS011;69158;55.592;37.610;2023-04-19T02:38:07;19.48;;;9.60;;
79691;SDS011;69158;55.592;37.610;2023-04-19T02:40:53;19.55;;;9.68;;
79691;SDS011;69158;55.592;37.610;2023-04-19T02:43:39;21.02;;;9.93;;
79691;SDS011;69158;55.592;37.610;2023-04-19T02:46:25;20.75;;;9.57;;
79691;SDS011;69158;55.592;37.610;2023-04-19T02:49:11;19.38;;;8.73;;
79691;SDS011;69158;55.592;37.610;2023-04-19T02:51:58;23.88;;;9.48;;
79691;SDS011;69158;55.592;37.610;2023-04-19T02:54:44;18.25;;;9.07;;
79691;SDS011;69158;55.592;37.610;2023-04-19T02:57:30;25.30;;;9.57;;
79691;SDS011;69158;55.592;37.610;2023-04-19T03:00:16;19.50;;;9.07;;
79691;SDS011;69158;55.592;37.610;2023-04-19T03:03:02;20.90;;;9.05;;
79691;SDS011;69158;55.592;37.610;2023-04-19T03:05:51;23.92;;;8.88;;
79691;SDS011;69158;55.592;37.610;2023-04-19T03:08:37;22.48;;;8.95;;
79691;SDS011;69158;55.592;37.610;2023-04-19T03:11:25;25.83;;;9.98;;
79691;SDS011;69158;55.592;37.610;2023-04-19T03:14:14;22.40;;;9.65;;
79691;SDS011;69158;55.592;37.610;2023-04-19T03:17:00;21.60;;;9.70;;
79691;SDS011;69158;55.592;37.610;2023-04-19T03:19:47;18.85;;;9.20;;
79691;SDS011;69158;55.592;37.610;2023-04-19T03:22:33;20.10;;;8.65;;
79691;SDS011;69158;55.592;37.610;2023-04-19T03:25:19;22.17;;;9.45;;
79691;SDS011;69158;55.592;37.610;2023-04-19T03:28:05;19.95;;;9.32;;
79691;SDS011;69158;55.592;37.610;2023-04-19T03:30:51;19.05;;;8.60;;
79691;SDS011;69158;55.592;37.610;2023-04-19T03:33:37;20.77;;;10.63;;
79691;SDS011;69158;55.592;37.610;2023-04-19T03:36:23;18.50;;;8.73;;
79691;SDS011;69158;55.592;37.610;2023-04-19T03:39:09;20.40;;;9.73;;
79691;SDS011;69158;55.592;37.610;2023-04-19T03:41:55;23.77;;;9.48;;
79691;SDS011;69158;55.592;37.610;2023-04-19T03:44:41;19.13;;;9.48;;
79691;SDS011;69158;55.592;37.610;2023-04-19T03:47:27;21.00;;;8.25;;
79691;SDS011;69158;55.592;37.610;2023-04-19T03:50:13;19.92;;;9.43;;
79691;SDS011;69158;55.592;37.610;2023-04-19T03:52:59;19.08;;;9.93;;
79691;SDS011;69158;55.592;37.610;2023-04-19T03:55:45;19.17;;;9.30;;
79691;SDS011;69158;55.592;37.610;2023-04-19T03:58:31;21.50;;;9.00;;
79691;SDS011;69158;55.592;37.610;2023-04-19T04:01:18;18.98;;;10.23;;
79691;SDS011;69158;55.592;37.610;2023-04-19T04:04:07;25.13;;;9.45;;
79691;SDS011;69158;55.592;37.610;2023-04-19T04:06:54;19.30;;;8.98;;
79691;SDS011;69158;55.592;37.610;2023-04-19T04:09:40;20.20;;;10.32;;
79691;SDS011;69158;55.592;37.610;2023-04-19T04:12:26;22.27;;;8.88;;
79691;SDS011;69158;55.592;37.610;2023-04-19T04:15:12;23.25;;;9.13;;
79691;SDS011;69158;55.592;37.610;2023-04-19T04:17:58;22.88;;;9.50;;
79691;SDS011;69158;55.592;37.610;2023-04-19T04:20:44;25.23;;;8.57;;
79691;SDS011;69158;55.592;37.610;2023-04-19T04:23:30;19.92;;;10.15;;
79691;SDS011;69158;55.592;37.610;2023-04-19T04:26:16;30.05;;;9.98;;
79691;SDS011;69158;55.592;37.610;2023-04-19T04:29:04;27.50;;;10.07;;
79691;SDS011;69158;55.592;37.610;2023-04-19T04:31:50;28.20;;;9.13;;
79691;SDS011;69158;55.592;37.610;2023-04-19T04:34:37;17.42;;;9.15;;
79691;SDS011;69158;55.592;37.610;2023-04-19T04:37:23;18.85;;;8.77;;
79691;SDS011;69158;55.592;37.610;2023-04-19T04:40:10;23.23;;;9.80;;
79691;SDS011;69158;55.592;37.610;2023-04-19T04:42:56;20.23;;;9.55;;
79691;SDS011;69158;55.592;37.610;2023-04-19T04:45:42;16.90;;;8.27;;
79691;SDS011;69158;55.592;37.610;2023-04-19T04:48:28;22.95;;;8.93;;
79691;SDS011;69158;55.592;37.610;2023-04-19T04:51:15;18.48;;;9.00;;
79691;SDS011;69158;55.592;37.610;2023-04-19T04:54:03;25.65;;;8.93;;
79691;SDS011;69158;55.592;37.610;2023-04-19T04:56:50;20.30;;;8.27;;
79691;SDS011;69158;55.592;37.610;2023-04-19T04:59:39;23.00;;;9.50;;
79691;SDS011;69158;55.592;37.610;2023-04-19T05:02:26;19.63;;;7.68;;
79691;SDS011;69158;55.592;37.610;2023-04-19T05:05:12;21.92;;;8.30;;
79691;SDS011;69158;55.592;37.610;2023-04-19T05:07:58;14.57;;;7.47;;
79691;SDS011;69158;55.592;37.610;2023-04-19T05:10:45;18.83;;;8.40;;
79691;SDS011;69158;55.592;37.610;2023-04-19T05:13:31;18.27;;;7.78;;
79691;SDS011;69158;55.592;37.610;2023-04-19T05:16:17;19.23;;;8.00;;
79691;SDS011;69158;55.592;37.610;2023-04-19T05:19:04;18.98;;;8.18;;
79691;SDS011;69158;55.592;37.610;2023-04-19T05:21:50;17.27;;;9.02;;
79691;SDS011;69158;55.592;37.610;2023-04-19T05:24:36;25.27;;;9.20;;
79691;SDS011;69158;55.592;37.610;2023-04-19T05:27:22;17.52;;;8.30;;
79691;SDS011;69158;55.592;37.610;2023-04-19T05:30:08;20.08;;;7.53;;
79691;SDS011;69158;55.592;37.610;2023-04-19T05:32:55;20.73;;;7.38;;
79691;SDS011;69158;55.592;37.610;2023-04-19T05:35:41;16.33;;;7.55;;
79691;SDS011;69158;55.592;37.610;2023-04-19T05:38:28;18.52;;;7.20;;
79691;SDS011;69158;55.592;37.610;2023-04-19T05:41:15;20.33;;;7.35;;
79691;SDS011;69158;55.592;37.610;2023-04-19T05:44:01;16.40;;;7.55;;
79691;SDS011;69158;55.592;37.610;2023-04-19T05:46:50;18.80;;;7.35;;
79691;SDS011;69158;55.592;37.610;2023-04-19T05:49:36;18.02;;;8.60;;
79691;SDS011;69158;55.592;37.610;2023-04-19T05:52:21;17.42;;;7.05;;
79691;SDS011;69158;55.592;37.610;2023-04-19T05:55:09;15.98;;;7.47;;
79691;SDS011;69158;55.592;37.610;2023-04-19T05:57:55;16.23;;;6.55;;
79691;SDS011;69158;55.592;37.610;2023-04-19T06:00:30;13.95;;;6.70;;
79691;SDS011;69158;55.592;37.610;2023-04-19T06:03:15;14.38;;;7.40;;
79691;SDS011;69158;55.592;37.610;2023-04-19T06:05:41;17.77;;;7.30;;
79691;SDS011;69158;55.592;37.610;2023-04-19T06:08:25;19.80;;;7.22;;
79691;SDS011;69158;55.592;37.610;2023-04-19T06:10:52;18.70;;;7.15;;
79691;SDS011;69158;55.592;37.610;2023-04-19T06:13:38;19.38;;;7.78;;
79691;SDS011;69158;55.592;37.610;2023-04-19T06:16:24;15.32;;;7.80;;
79691;SDS011;69158;55.592;37.610;2023-04-19T06:19:10;16.05;;;7.38;;
79691;SDS011;69158;55.592;37.610;2023-04-19T06:21:56;20.25;;;8.07;;
79691;SDS011;69158;55.592;37.610;2023-04-19T06:24:45;15.45;;;8.23;;
79691;SDS011;69158;55.592;37.610;2023-04-19T06:27:32;19.08;;;7.47;;
79691;SDS011;69158;55.592;37.610;2023-04-19T06:30:18;17.65;;;7.43;;
79691;SDS011;69158;55.592;37.610;2023-04-19T06:33:04;16.70;;;8.60;;
79691;SDS011;69158;55.592;37.610;2023-04-19T06:35:55;14.60;;;7.13;;
79691;SDS011;69158;55.592;37.610;2023-04-19T06:38:40;16.10;;;7.78;;
79691;SDS011;69158;55.592;37.610;2023-04-19T06:41:28;18.02;;;7.57;;
79691;SDS011;69158;55.592;37.610;2023-04-19T06:44:15;20.83;;;6.68;;
79691;SDS011;69158;55.592;37.610;2023-04-19T06:47:01;16.83;;;6.78;;
79691;SDS011;69158;55.592;37.610;2023-04-19T06:49:47;14.85;;;6.38;;
79691;SDS011;69158;55.592;37.610;2023-04-19T06:52:33;16.02;;;7.55;;
79691;SDS011;69158;55.592;37.610;2023-04-19T06:55:20;13.00;;;6.85;;
79691;SDS011;69158;55.592;37.610;2023-04-19T06:58:06;13.48;;;6.60;;
79691;SDS011;69158;55.592;37.610;2023-04-19T07:00:55;17.05;;;7.55;;
79691;SDS011;69158;55.592;37.610;2023-04-19T07:03:41;11.73;;;6.80;;
79691;SDS011;69158;55.592;37.610;2023-04-19T07:06:26;13.45;;;6.80;;
79691;SDS011;69158;55.592;37.610;2023-04-19T07:09:14;16.00;;;7.47;;
79691;SDS011;69158;55.592;37.610;2023-04-19T07:12:00;13.48;;;7.40;;
79691;SDS011;69158;55.592;37.610;2023-04-19T07:14:46;19.67;;;5.90;;
79691;SDS011;69158;55.592;37.610;2023-04-19T07:17:33;15.70;;;5.15;;
79691;SDS011;69158;55.592;37.610;2023-04-19T07:20:20;22.88;;;6.07;;
79691;SDS011;69158;55.592;37.610;2023-04-19T07:23:06;17.95;;;6.47;;
79691;SDS011;69158;55.592;37.610;2023-04-19T07:25:52;18.27;;;6.35;;
79691;SDS011;69158;55.592;37.610;2023-04-19T07:28:39;15.60;;;5.63;;
79691;SDS011;69158;55.592;37.610;2023-04-19T07:31:25;16.50;;;6.90;;
79691;SDS011;69158;55.592;37.610;2023-04-19T07:34:19;12.50;;;6.13;;
79691;SDS011;69158;55.592;37.610;2023-04-19T07:37:11;13.88;;;5.72;;
79691;SDS011;69158;55.592;37.610;2023-04-19T07:45:56;11.73;;;5.88;;
79691;SDS011;69158;55.592;37.610;2023-04-19T07:48:41;10.85;;;5.75;;
79691;SDS011;69158;55.592;37.610;2023-04-19T07:51:27;23.38;;;6.78;;
79691;SDS011;69158;55.592;37.610;2023-04-19T07:54:13;14.15;;;6.30;;
79691;SDS011;69158;55.592;37.610;2023-04-19T07:57:00;11.40;;;6.40;;
79691;SDS011;69158;55.592;37.610;2023-04-19T07:59:46;18.65;;;6.70;;
79691;SDS011;69158;55.592;37.610;2023-04-19T08:02:32;13.07;;;5.90;;
79691;SDS011;69158;55.592;37.610;2023-04-19T08:05:18;10.63;;;5.75;;
79691;SDS011;69158;55.592;37.610;2023-04-19T08:08:04;15.50;;;6.00;;
79691;SDS011;69158;55.592;37.610;2023-04-19T08:10:51;13.00;;;6.63;;
79691;SDS011;69158;55.592;37.610;2023-04-19T08:13:39;13.73;;;5.15;;
79691;SDS011;69158;55.592;37.610;2023-04-19T08:16:25;12.90;;;5.90;;
79691;SDS011;69158;55.592;37.610;2023-04-19T08:19:12;12.48;;;6.07;;
79691;SDS011;69158;55.592;37.610;2023-04-19T08:21:59;13.55;;;6.13;;
79691;SDS011;69158;55.592;37.610;2023-04-19T08:24:47;12.48;;;5.82;;
79691;SDS011;69158;55.592;37.610;2023-04-19T08:27:34;15.32;;;6.47;;
79691;SDS011;69158;55.592;37.610;2023-04-19T08:30:23;13.35;;;6.43;;
79691;SDS011;69158;55.592;37.610;2023-04-19T08:33:09;14.02;;;5.53;;
79691;SDS011;69158;55.592;37.610;2023-04-19T08:35:55;13.05;;;6.00;;
79691;SDS011;69158;55.592;37.610;2023-04-19T08:38:41;13.90;;;5.47;;
79691;SDS011;69158;55.592;37.610;2023-04-19T08:41:27;12.43;;;5.05;;
79691;SDS011;69158;55.592;37.610;2023-04-19T08:44:16;12.15;;;5.03;;
79691;SDS011;69158;55.592;37.610;2023-04-19T08:47:03;10.85;;;5.90;;
79691;SDS011;69158;55.592;37.610;2023-04-19T08:49:50;11.82;;;6.05;;
79691;SDS011;69158;55.592;37.610;2023-04-19T08:52:39;12.13;;;5.75;;
79691;SDS011;69158;55.592;37.610;2023-04-19T08:55:26;13.00;;;5.07;;
79691;SDS011;69158;55.592;37.610;2023-04-19T08:58:13;15.50;;;5.90;;
79691;SDS011;69158;55.592;37.610;2023-04-19T09:00:59;12.43;;;5.32;;
79691;SDS011;69158;55.592;37.610;2023-04-19T09:03:47;11.30;;;5.22;;
79691;SDS011;69158;55.592;37.610;2023-04-19T09:06:39;12.63;;;6.53;;
79691;SDS011;69158;55.592;37.610;2023-04-19T09:09:26;12.15;;;5.78;;
79691;SDS011;69158;55.592;37.610;2023-04-19T09:12:16;10.27;;;5.32;;
79691;SDS011;69158;55.592;37.610;2023-04-19T09:15:03;12.60;;;5.60;;
79691;SDS011;69158;55.592;37.610;2023-04-19T09:18:11;10.60;;;4.88;;
79691;SDS011;69158;55.592;37.610;2023-04-19T09:20:57;12.68;;;5.03;;
79691;SDS011;69158;55.592;37.610;2023-04-19T09:23:45;14.43;;;5.20;;
79691;SDS011;69158;55.592;37.610;2023-04-19T09:26:32;12.65;;;5.50;;
79691;SDS011;69158;55.592;37.610;2023-04-19T09:29:19;10.75;;;5.35;;
79691;SDS011;69158;55.592;37.610;2023-04-19T09:32:06;13.60;;;4.25;;
79691;SDS011;69158;55.592;37.610;2023-04-19T09:34:58;11.43;;;4.78;;
79691;SDS011;69158;55.592;37.610;2023-04-19T09:38:06;10.05;;;5.32;;
79691;SDS011;69158;55.592;37.610;2023-04-19T09:40:51;11.68;;;5.55;;
79691;SDS011;69158;55.592;37.610;2023-04-19T09:43:37;10.27;;;6.18;;
79691;SDS011;69158;55.592;37.610;2023-04-19T09:46:34;11.40;;;4.63;;
79691;SDS011;69158;55.592;37.610;2023-04-19T09:49:25;12.38;;;5.43;;
79691;SDS011;69158;55.592;37.610;2023-04-19T09:52:12;11.65;;;6.28;;
79691;SDS011;69158;55.592;37.610;2023-04-19T09:55:00;12.80;;;5.32;;
79691;SDS011;69158;55.592;37.610;2023-04-19T09:57:46;11.00;;;5.78;;
79691;SDS011;69158;55.592;37.610;2023-04-19T10:00:32;13.18;;;5.03;;
79691;SDS011;69158;55.592;37.610;2023-04-19T10:03:19;11.73;;;4.90;;
79691;SDS011;69158;55.592;37.610;2023-04-19T10:06:07;12.60;;;5.88;;
79691;SDS011;69158;55.592;37.610;2023-04-19T10:08:53;10.45;;;5.38;;
79691;SDS011;69158;55.592;37.610;2023-04-19T10:11:45;15.15;;;6.93;;
79691;SDS011;69158;55.592;37.610;2023-04-19T10:14:33;9.82;;;5.15;;
79691;SDS011;69158;55.592;37.610;2023-04-19T10:17:21;10.85;;;6.10;;
79691;SDS011;69158;55.592;37.610;2023-04-19T10:20:09;12.20;;;5.70;;
79691;SDS011;69158;55.592;37.610;2023-04-19T10:22:58;12.40;;;5.65;;
79691;SDS011;69158;55.592;37.610;2023-04-19T10:25:45;12.27;;;5.25;;
79691;SDS011;69158;55.592;37.610;2023-04-19T10:28:40;12.45;;;5.95;;
79691;SDS011;69158;55.592;37.610;2023-04-19T10:31:26;12.70;;;7.15;;
79691;SDS011;69158;55.592;37.610;2023-04-19T10:34:12;12.00;;;5.38;;
79691;SDS011;69158;55.592;37.610;2023-04-19T10:36:58;9.93;;;6.10;;
79691;SDS011;69158;55.592;37.610;2023-04-19T10:39:44;11.50;;;5.07;;
79691;SDS011;69158;55.592;37.610;2023-04-19T10:43:16;11.73;;;6.82;;
79691;SDS011;69158;55.592;37.610;2023-04-19T10:45:58;18.20;;;9.18;;
79691;SDS011;69158;55.592;37.610;2023-04-19T10:48:55;14.38;;;8.25;;
79691;SDS011;69158;55.592;37.610;2023-04-19T10:51:49;19.30;;;9.25;;
79691;SDS011;69158;55.592;37.610;2023-04-19T10:54:44;15.52;;;8.00;;
79691;SDS011;69158;55.592;37.610;2023-04-19T11:00:45;13.77;;;7.43;;
79691;SDS011;69158;55.592;37.610;2023-04-19T11:06:29;20.00;;;6.80;;
79691;SDS011;69158;55.592;37.610;2023-04-19T11:12:26;19.17;;;7.15;;
79691;SDS011;69158;55.592;37.610;2023-04-19T11:15:12;10.93;;;5.93;;
79691;SDS011;69158;55.592;37.610;2023-04-19T11:17:59;14.00;;;6.35;;
79691;SDS011;69158;55.592;37.610;2023-04-19T11:20:45;12.50;;;6.53;;
79691;SDS011;69158;55.592;37.610;2023-04-19T11:23:37;13.40;;;6.00;;
79691;SDS011;69158;55.592;37.610;2023-04-19T11:26:23;16.67;;;5.72;;
79691;SDS011;69158;55.592;37.610;2023-04-19T11:29:09;18.55;;;6.80;;
79691;SDS011;69158;55.592;37.610;2023-04-19T11:31:55;17.77;;;6.68;;
79691;SDS011;69158;55.592;37.610;2023-04-19T11:34:41;14.48;;;5.63;;
79691;SDS011;69158;55.592;37.610;2023-04-19T11:37:31;15.70;;;6.70;;
79691;SDS011;69158;55.592;37.610;2023-04-19T11:40:18;15.43;;;6.60;;
79691;SDS011;69158;55.592;37.610;2023-04-19T11:43:06;15.05;;;6.32;;
79691;SDS011;69158;55.592;37.610;2023-04-19T11:45:52;12.23;;;5.78;;
79691;SDS011;69158;55.592;37.610;2023-04-19T11:48:48;13.02;;;7.30;;
79691;SDS011;69158;55.592;37.610;2023-04-19T11:51:41;14.80;;;6.18;;
79691;SDS011;69158;55.592;37.610;2023-04-19T11:54:27;16.17;;;6.75;;
79691;SDS011;69158;55.592;37.610;2023-04-19T11:57:13;11.38;;;5.85;;
79691;SDS011;69158;55.592;37.610;2023-04-19T12:02:56;13.30;;;6.05;;
79691;SDS011;69158;55.592;37.610;2023-04-19T12:05:53;14.68;;;5.55;;
79691;SDS011;69158;55.592;37.610;2023-04-19T12:08:50;15.55;;;5.18;;
79691;SDS011;69158;55.592;37.610;2023-04-19T12:11:41;14.75;;;5.63;;
79691;SDS011;69158;55.592;37.610;2023-04-19T12:14:33;13.48;;;5.07;;
79691;SDS011;69158;55.592;37.610;2023-04-19T12:17:19;12.38;;;4.90;;
79691;SDS011;69158;55.592;37.610;2023-04-19T12:20:08;11.85;;;5.78;;
79691;SDS011;69158;55.592;37.610;2023-04-19T12:22:52;13.20;;;5.00;;
79691;SDS011;69158;55.592;37.610;2023-04-19T12:25:38;10.68;;;5.32;;
79691;SDS011;69158;55.592;37.610;2023-04-19T12:28:25;27.20;;;6.15;;
79691;SDS011;69158;55.592;37.610;2023-04-19T12:31:11;10.43;;;5.25;;
79691;SDS011;69158;55.592;37.610;2023-04-19T12:33:57;16.38;;;5.20;;
79691;SDS011;69158;55.592;37.610;2023-04-19T12:36:46;13.43;;;5.20;;
79691;SDS011;69158;55.592;37.610;2023-04-19T12:39:32;14.90;;;5.25;;
79691;SDS011;69158;55.592;37.610;2023-04-19T12:42:18;13.05;;;5.70;;
79691;SDS011;69158;55.592;37.610;2023-04-19T12:45:06;13.63;;;5.15;;
79691;SDS011;69158;55.592;37.610;2023-04-19T12:47:52;15.07;;;5.97;;
79691;SDS011;69158;55.592;37.610;2023-04-19T12:50:44;15.43;;;6.25;;
79691;SDS011;69158;55.592;37.610;2023-04-19T12:53:30;16.13;;;4.68;;
79691;SDS011;69158;55.592;37.610;2023-04-19T12:56:16;13.18;;;5.05;;
79691;SDS011;69158;55.592;37.610;2023-04-19T12:59:02;14.13;;;4.90;;
79691;SDS011;69158;55.592;37.610;2023-04-19T13:01:48;14.57;;;5.88;;
79691;SDS011;69158;55.592;37.610;2023-04-19T13:04:34;12.35;;;5.05;;
79691;SDS011;69158;55.592;37.610;2023-04-19T13:07:20;11.65;;;4.75;;
79691;SDS011;69158;55.592;37.610;2023-04-19T13:10:07;10.65;;;5.22;;
79691;SDS011;69158;55.592;37.610;2023-04-19T13:12:53;11.82;;;5.30;;
79691;SDS011;69158;55.592;37.610;2023-04-19T13:15:39;16.13;;;5.32;;
79691;SDS011;69158;55.592;37.610;2023-04-19T13:18:26;12.10;;;4.60;;
79691;SDS011;69158;55.592;37.610;2023-04-19T13:21:12;13.10;;;5.03;;
79691;SDS011;69158;55.592;37.610;2023-04-19T13:23:58;14.63;;;4.50;;
79691;SDS011;69158;55.592;37.610;2023-04-19T13:26:44;17.05;;;4.90;;
79691;SDS011;69158;55.592;37.610;2023-04-19T13:29:30;11.85;;;4.90;;
79691;SDS011;69158;55.592;37.610;2023-04-19T13:32:16;13.27;;;5.55;;
79691;SDS011;69158;55.592;37.610;2023-04-19T13:35:02;13.50;;;4.63;;
79691;SDS011;69158;55.592;37.610;2023-04-19T13:37:48;11.55;;;4.72;;
79691;SDS011;69158;55.592;37.610;2023-04-19T13:40:35;13.05;;;4.68;;
79691;SDS011;69158;55.592;37.610;2023-04-19T13:43:23;10.38;;;4.80;;
79691;SDS011;69158;55.592;37.610;2023-04-19T13:46:09;11.82;;;5.07;;
79691;SDS011;69158;55.592;37.610;2023-04-19T13:48:55;12.85;;;5.03;;
79691;SDS011;69158;55.592;37.610;2023-04-19T13:51:41;12.57;;;4.47;;
79691;SDS011;69158;55.592;37.610;2023-04-19T13:54:27;9.52;;;3.85;;
79691;SDS011;69158;55.592;37.610;2023-04-19T13:57:13;11.05;;;4.55;;
79691;SDS011;69158;55.592;37.610;2023-04-19T13:59:59;10.35;;;4.80;;
79691;SDS011;69158;55.592;37.610;2023-04-19T14:02:45;10.15;;;4.60;;
79691;SDS011;69158;55.592;37.610;2023-04-19T14:05:31;10.85;;;4.25;;
79691;SDS011;69158;55.592;37.610;2023-04-19T14:08:17;10.40;;;4.70;;
79691;SDS011;69158;55.592;37.610;2023-04-19T14:11:03;11.52;;;4.93;;
79691;SDS011;69158;55.592;37.610;2023-04-19T14:13:49;12.88;;;4.13;;
79691;SDS011;69158;55.592;37.610;2023-04-19T14:16:35;15.50;;;4.75;;
79691;SDS011;69158;55.592;37.610;2023-04-19T14:19:21;14.88;;;4.45;;
79691;SDS011;69158;55.592;37.610;2023-04-19T14:22:07;10.95;;;4.00;;
79691;SDS011;69158;55.592;37.610;2023-04-19T14:24:53;10.00;;;5.15;;
79691;SDS011;69158;55.592;37.610;2023-04-19T14:27:39;11.52;;;5.07;;
79691;SDS011;69158;55.592;37.610;2023-04-19T14:30:26;9.52;;;4.32;;
79691;SDS011;69158;55.592;37.610;2023-04-19T14:33:12;9.27;;;4.50;;
79691;SDS011;69158;55.592;37.610;2023-04-19T14:35:57;12.75;;;4.15;;
79691;SDS011;69158;55.592;37.610;2023-04-19T14:38:43;9.82;;;5.00;;
79691;SDS011;69158;55.592;37.610;2023-04-19T14:41:29;11.63;;;3.72;;
79691;SDS011;69158;55.592;37.610;2023-04-19T14:44:15;13.43;;;4.15;;
79691;SDS011;69158;55.592;37.610;2023-04-19T14:47:01;12.13;;;4.75;;
79691;SDS011;69158;55.592;37.610;2023-04-19T14:49:47;11.30;;;4.00;;
79691;SDS011;69158;55.592;37.610;2023-04-19T14:52:33;12.25;;;5.22;;
79691;SDS011;69158;55.592;37.610;2023-04-19T14:55:23;9.25;;;3.97;;
79691;SDS011;69158;55.592;37.610;2023-04-19T14:58:11;11.07;;;3.85;;
79691;SDS011;69158;55.592;37.610;2023-04-19T15:00:57;10.32;;;4.18;;
79691;SDS011;69158;55.592;37.610;2023-04-19T15:03:43;14.05;;;4.03;;
79691;SDS011;69158;55.592;37.610;2023-04-19T15:06:32;12.80;;;4.60;;
79691;SDS011;69158;55.592;37.610;2023-04-19T15:09:18;13.38;;;4.60;;
79691;SDS011;69158;55.592;37.610;2023-04-19T15:12:10;15.40;;;4.57;;
79691;SDS011;69158;55.592;37.610;2023-04-19T15:15:02;8.57;;;3.78;;
79691;SDS011;69158;55.592;37.610;2023-04-19T15:17:48;14.98;;;4.85;;
79691;SDS011;69158;55.592;37.610;2023-04-19T15:20:34;11.50;;;4.78;;
79691;SDS011;69158;55.592;37.610;2023-04-19T15:23:22;11.25;;;4.38;;
79691;SDS011;69158;55.592;37.610;2023-04-19T15:26:11;11.02;;;5.70;;
79691;SDS011;69158;55.592;37.610;2023-04-19T15:28:57;12.40;;;5.50;;
79691;SDS011;69158;55.592;37.610;2023-04-19T15:31:50;10.98;;;4.05;;
79691;SDS011;69158;55.592;37.610;2023-04-19T15:34:38;18.08;;;4.45;;
79691;SDS011;69158;55.592;37.610;2023-04-19T15:37:24;15.77;;;4.07;;
79691;SDS011;69158;55.592;37.610;2023-04-19T15:40:11;11.77;;;4.55;;
79691;SDS011;69158;55.592;37.610;2023-04-19T15:42:59;13.45;;;4.50;;
79691;SDS011;69158;55.592;37.610;2023-04-19T15:45:48;12.68;;;3.60;;
79691;SDS011;69158;55.592;37.610;2023-04-19T15:48:34;9.25;;;4.20;;
79691;SDS011;69158;55.592;37.610;2023-04-19T15:51:20;10.48;;;4.47;;
79691;SDS011;69158;55.592;37.610;2023-04-19T15:54:06;12.90;;;4.75;;
79691;SDS011;69158;55.592;37.610;2023-04-19T15:56:52;15.75;;;4.13;;
79691;SDS011;69158;55.592;37.610;2023-04-19T15:59:39;15.30;;;4.53;;
79691;SDS011;69158;55.592;37.610;2023-04-19T16:02:24;12.55;;;4.03;;
79691;SDS011;69158;55.592;37.610;2023-04-19T16:05:10;18.20;;;4.55;;
79691;SDS011;69158;55.592;37.610;2023-04-19T16:08:02;11.10;;;4.63;;
79691;SDS011;69158;55.592;37.610;2023-04-19T16:10:50;8.85;;;4.28;;
79691;SDS011;69158;55.592;37.610;2023-04-19T16:13:36;17.40;;;4.28;;
79691;SDS011;69158;55.592;37.610;2023-04-19T16:16:22;14.60;;;3.88;;
79691;SDS011;69158;55.592;37.610;2023-04-19T16:19:11;13.02;;;4.13;;
79691;SDS011;69158;55.592;37.610;2023-04-19T16:21:57;13.82;;;4.32;;
79691;SDS011;69158;55.592;37.610;2023-04-19T16:24:46;9.98;;;3.85;;
79691;SDS011;69158;55.592;37.610;2023-04-19T16:27:32;9.82;;;3.75;;
79691;SDS011;69158;55.592;37.610;2023-04-19T16:30:18;10.60;;;3.40;;
79691;SDS011;69158;55.592;37.610;2023-04-19T16:33:04;10.65;;;3.53;;
79691;SDS011;69158;55.592;37.610;2023-04-19T16:35:50;13.50;;;3.65;;
79691;SDS011;69158;55.592;37.610;2023-04-19T16:38:36;18.02;;;4.25;;